createdAt,value
2018-06-20T00:00:29.084Z,0
2018-06-20T00:01:29.797Z,0
2018-06-20T00:02:30.511Z,0
2018-06-20T00:03:31.227Z,0
2018-06-20T00:04:31.956Z,0
2018-06-20T00:05:32.672Z,0
2018-06-20T00:06:33.386Z,0
2018-06-20T00:07:34.113Z,0
2018-06-20T00:08:34.829Z,0
2018-06-20T00:09:35.547Z,0
2018-06-20T00:10:36.275Z,0
2018-06-20T00:11:36.990Z,0
2018-06-20T00:12:37.706Z,0
2018-06-20T00:13:38.420Z,0
2018-06-20T00:14:39.136Z,0
2018-06-20T00:15:39.851Z,0
2018-06-20T00:16:40.571Z,0
2018-06-20T00:17:41.283Z,0
2018-06-20T00:18:41.994Z,0
2018-06-20T00:19:42.708Z,0
2018-06-20T00:20:43.422Z,0
2018-06-20T00:21:44.136Z,0
2018-06-20T00:22:44.850Z,0
2018-06-20T00:23:45.578Z,0
2018-06-20T00:24:46.293Z,0
2018-06-20T00:25:47.009Z,0
2018-06-20T00:26:47.724Z,0
2018-06-20T00:27:48.438Z,0
2018-06-20T00:28:49.157Z,0
2018-06-20T00:29:49.867Z,0
2018-06-20T00:30:50.581Z,0
2018-06-20T00:31:51.297Z,0
2018-06-20T00:32:52.026Z,0
2018-06-20T00:33:52.741Z,0
2018-06-20T00:34:53.468Z,0
2018-06-20T00:35:54.183Z,0
2018-06-20T00:36:54.898Z,0
2018-06-20T00:37:55.613Z,0
2018-06-20T00:38:56.329Z,0
2018-06-20T00:39:57.054Z,0
2018-06-20T00:40:57.768Z,0
2018-06-20T00:41:58.482Z,0
2018-06-20T00:42:59.195Z,0
2018-06-20T00:43:59.923Z,0
2018-06-20T00:45:00.638Z,0
2018-06-20T00:46:01.352Z,0
2018-06-20T00:47:02.066Z,0
2018-06-20T00:48:02.779Z,0
2018-06-20T00:49:03.507Z,0
2018-06-20T00:50:04.226Z,0
2018-06-20T00:52:05.565Z,0
2018-06-20T00:53:06.282Z,0
2018-06-20T00:54:06.997Z,0
2018-06-20T00:55:07.723Z,0
2018-06-20T00:56:08.450Z,0
2018-06-20T00:57:09.166Z,0
2018-06-20T00:58:09.880Z,0
2018-06-20T00:59:10.595Z,0
2018-06-20T01:00:11.308Z,0
2018-06-20T01:01:12.022Z,0
2018-06-20T01:02:12.737Z,0
2018-06-20T01:03:13.451Z,0
2018-06-20T01:04:14.164Z,0
2018-06-20T01:05:14.878Z,0
2018-06-20T01:06:15.604Z,0
2018-06-20T01:07:16.319Z,0
2018-06-20T01:08:17.033Z,0
2018-06-20T01:09:17.747Z,0
2018-06-20T01:10:18.463Z,0
2018-06-20T01:11:19.177Z,0
2018-06-20T01:12:19.892Z,0
2018-06-20T01:13:20.606Z,0
2018-06-20T01:14:21.320Z,0
2018-06-20T01:15:22.035Z,0
2018-06-20T01:16:22.748Z,0
2018-06-20T01:17:23.462Z,0
2018-06-20T01:18:24.177Z,0
2018-06-20T01:19:24.910Z,0
2018-06-20T01:20:25.625Z,0
2018-06-20T01:21:26.335Z,0
2018-06-20T01:22:27.051Z,0
2018-06-20T01:23:27.782Z,0
2018-06-20T01:24:28.492Z,0
2018-06-20T01:25:29.207Z,0
2018-06-20T01:26:29.921Z,0
2018-06-20T01:27:30.638Z,0
2018-06-20T01:28:31.352Z,0
2018-06-20T01:29:32.067Z,0
2018-06-20T01:30:32.781Z,0
2018-06-20T01:31:33.509Z,0
2018-06-20T01:32:34.238Z,0
2018-06-20T01:33:34.953Z,0
2018-06-20T01:34:35.680Z,0
2018-06-20T01:35:36.394Z,0
2018-06-20T01:36:37.108Z,0
2018-06-20T01:37:37.822Z,0
2018-06-20T01:38:38.536Z,0
2018-06-20T01:39:39.249Z,0
2018-06-20T01:40:39.964Z,0
2018-06-20T01:41:40.690Z,0
2018-06-20T01:42:41.407Z,0
2018-06-20T01:43:42.123Z,0
2018-06-20T01:44:42.837Z,0
2018-06-20T01:45:43.552Z,0
2018-06-20T01:46:44.266Z,0
2018-06-20T01:47:44.980Z,0
2018-06-20T01:48:45.705Z,0
2018-06-20T01:49:46.421Z,0
2018-06-20T01:50:47.134Z,0
2018-06-20T01:51:47.849Z,0
2018-06-20T01:52:48.564Z,0
2018-06-20T01:53:49.289Z,0
2018-06-20T01:54:50.008Z,0
2018-06-20T01:55:50.731Z,0
2018-06-20T01:56:51.448Z,0
2018-06-20T01:57:52.171Z,0
2018-06-20T01:58:52.898Z,0
2018-06-20T01:59:53.625Z,0
2018-06-20T02:00:54.340Z,0
2018-06-20T02:01:55.055Z,0
2018-06-20T02:02:55.771Z,0
2018-06-20T02:03:56.484Z,0
2018-06-20T02:04:57.197Z,0
2018-06-20T02:05:57.910Z,0
2018-06-20T02:06:58.625Z,0
2018-06-20T02:07:59.337Z,0
2018-06-20T02:09:00.051Z,0
2018-06-20T02:10:00.764Z,0
2018-06-20T02:11:01.491Z,0
2018-06-20T02:12:02.205Z,0
2018-06-20T02:13:02.919Z,0
2018-06-20T02:14:03.634Z,0
2018-06-20T02:15:04.348Z,0
2018-06-20T02:16:05.063Z,0
2018-06-20T02:17:05.777Z,0
2018-06-20T02:18:06.490Z,0
2018-06-20T02:19:07.205Z,0
2018-06-20T02:20:07.920Z,0
2018-06-20T02:21:08.632Z,0
2018-06-20T02:22:09.348Z,0
2018-06-20T02:23:10.075Z,0
2018-06-20T02:24:10.791Z,0
2018-06-20T02:25:11.508Z,0
2018-06-20T02:26:12.222Z,0
2018-06-20T02:27:12.946Z,0
2018-06-20T02:28:13.673Z,0
2018-06-20T02:29:14.401Z,0
2018-06-20T02:30:15.137Z,0
2018-06-20T02:31:15.842Z,0
2018-06-20T02:32:16.568Z,0
2018-06-20T02:33:17.283Z,4
2018-06-20T02:34:18.023Z,4
2018-06-20T02:35:18.738Z,4
2018-06-20T02:36:19.453Z,0
2018-06-20T02:37:20.178Z,0
2018-06-20T02:38:20.890Z,0
2018-06-20T02:39:21.605Z,4
2018-06-20T02:40:22.330Z,4
2018-06-20T02:41:23.048Z,4
2018-06-20T02:42:23.763Z,4
2018-06-20T02:43:24.490Z,4
2018-06-20T02:44:25.205Z,4
2018-06-20T02:45:25.918Z,4
2018-06-20T02:46:26.634Z,4
2018-06-20T02:47:27.347Z,4
2018-06-20T02:48:28.074Z,8
2018-06-20T02:49:28.788Z,4
2018-06-20T02:50:29.504Z,8
2018-06-20T02:51:30.217Z,8
2018-06-20T02:52:30.932Z,8
2018-06-20T02:53:31.646Z,8
2018-06-20T02:54:32.374Z,8
2018-06-20T02:55:33.088Z,12
2018-06-20T02:56:33.816Z,12
2018-06-20T02:57:34.539Z,12
2018-06-20T02:58:35.247Z,12
2018-06-20T02:59:35.961Z,20
2018-06-20T03:00:36.677Z,20
2018-06-20T03:01:37.392Z,24
2018-06-20T03:02:38.104Z,24
2018-06-20T03:03:38.820Z,28
2018-06-20T03:04:39.535Z,28
2018-06-20T03:05:40.251Z,32
2018-06-20T03:06:40.966Z,32
2018-06-20T03:07:41.684Z,32
2018-06-20T03:08:42.399Z,32
2018-06-20T03:09:43.116Z,32
2018-06-20T03:10:43.831Z,36
2018-06-20T03:11:44.547Z,36
2018-06-20T03:12:45.269Z,40
2018-06-20T03:13:45.992Z,44
2018-06-20T03:14:46.712Z,48
2018-06-20T03:15:47.422Z,56
2018-06-20T03:16:48.136Z,60
2018-06-20T03:17:48.853Z,64
2018-06-20T03:18:49.570Z,68
2018-06-20T03:19:50.283Z,76
2018-06-20T03:20:51.001Z,76
2018-06-20T03:21:51.718Z,84
2018-06-20T03:22:52.436Z,84
2018-06-20T03:23:53.151Z,88
2018-06-20T03:24:53.867Z,96
2018-06-20T03:25:54.583Z,100
2018-06-20T03:26:55.302Z,104
2018-06-20T03:27:56.018Z,112
2018-06-20T03:28:56.737Z,116
2018-06-20T03:29:57.452Z,128
2018-06-20T03:30:58.169Z,136
2018-06-20T03:31:58.945Z,148
2018-06-20T03:32:59.600Z,160
2018-06-20T03:34:00.316Z,164
2018-06-20T03:35:01.039Z,176
2018-06-20T03:36:01.767Z,184
2018-06-20T03:37:02.482Z,184
2018-06-20T03:38:03.198Z,192
2018-06-20T03:39:03.916Z,188
2018-06-20T03:40:04.633Z,188
2018-06-20T03:41:05.363Z,192
2018-06-20T03:42:06.094Z,200
2018-06-20T03:43:06.808Z,208
2018-06-20T03:44:07.539Z,224
2018-06-20T03:45:08.254Z,240
2018-06-20T03:46:08.978Z,252
2018-06-20T03:47:09.691Z,252
2018-06-20T03:48:10.407Z,260
2018-06-20T03:49:11.124Z,264
2018-06-20T03:50:11.842Z,276
2018-06-20T03:51:12.559Z,280
2018-06-20T03:52:13.288Z,292
2018-06-20T03:53:14.008Z,300
2018-06-20T03:54:14.726Z,312
2018-06-20T03:55:15.442Z,344
2018-06-20T03:56:16.159Z,380
2018-06-20T03:57:16.876Z,408
2018-06-20T03:58:17.607Z,436
2018-06-20T03:59:18.323Z,448
2018-06-20T04:00:19.043Z,424
2018-06-20T04:01:19.772Z,440
2018-06-20T04:02:20.557Z,476
2018-06-20T04:03:21.207Z,512
2018-06-20T04:04:21.930Z,532
2018-06-20T04:05:22.643Z,568
2018-06-20T04:06:23.361Z,600
2018-06-20T04:07:24.081Z,604
2018-06-20T04:08:24.800Z,612
2018-06-20T04:09:25.517Z,616
2018-06-20T04:10:26.234Z,620
2018-06-20T04:11:26.953Z,640
2018-06-20T04:12:27.682Z,660
2018-06-20T04:13:28.401Z,684
2018-06-20T04:14:29.135Z,712
2018-06-20T04:15:29.864Z,736
2018-06-20T04:16:30.581Z,756
2018-06-20T04:17:31.303Z,792
2018-06-20T04:18:32.020Z,800
2018-06-20T04:19:32.736Z,800
2018-06-20T04:20:33.465Z,796
2018-06-20T04:21:34.183Z,792
2018-06-20T04:22:34.900Z,784
2018-06-20T04:23:35.633Z,764
2018-06-20T04:24:36.350Z,788
2018-06-20T04:25:37.070Z,788
2018-06-20T04:26:37.796Z,840
2018-06-20T04:27:38.512Z,876
2018-06-20T04:28:39.244Z,936
2018-06-20T04:29:39.962Z,988
2018-06-20T04:30:40.681Z,1080
2018-06-20T04:31:41.412Z,1172
2018-06-20T04:32:42.132Z,1328
2018-06-20T04:33:42.864Z,1384
2018-06-20T04:34:43.601Z,1504
2018-06-20T04:35:44.305Z,1568
2018-06-20T04:36:45.022Z,1660
2018-06-20T04:37:45.740Z,1744
2018-06-20T04:38:46.461Z,1768
2018-06-20T04:39:47.179Z,1828
2018-06-20T04:40:47.898Z,1880
2018-06-20T04:41:48.618Z,1912
2018-06-20T04:42:49.338Z,2016
2018-06-20T04:43:50.059Z,2012
2018-06-20T04:44:50.777Z,2064
2018-06-20T04:45:51.499Z,2104
2018-06-20T04:46:52.218Z,2168
2018-06-20T04:47:52.936Z,2236
2018-06-20T04:48:53.656Z,2360
2018-06-20T04:49:54.388Z,2276
2018-06-20T04:50:55.109Z,2348
2018-06-20T04:51:55.830Z,2388
2018-06-20T04:52:56.549Z,2444
2018-06-20T04:53:57.268Z,2496
2018-06-20T04:54:57.988Z,2596
2018-06-20T04:55:58.709Z,2672
2018-06-20T04:56:59.439Z,2672
2018-06-20T04:58:00.160Z,2620
2018-06-20T04:59:00.885Z,2700
2018-06-20T05:00:01.597Z,2760
2018-06-20T05:01:02.317Z,2780
2018-06-20T05:02:03.052Z,2948
2018-06-20T05:03:03.770Z,2924
2018-06-20T05:04:04.499Z,3012
2018-06-20T05:05:05.233Z,3096
2018-06-20T05:06:05.954Z,3148
2018-06-20T05:07:06.680Z,3236
2018-06-20T05:08:07.395Z,3336
2018-06-20T05:09:08.116Z,3440
2018-06-20T05:10:08.853Z,3388
2018-06-20T05:11:09.582Z,3364
2018-06-20T05:12:10.316Z,3412
2018-06-20T05:13:11.038Z,3476
2018-06-20T05:14:11.758Z,3596
2018-06-20T05:15:12.478Z,3796
2018-06-20T05:16:13.211Z,3888
2018-06-20T05:17:13.933Z,3904
2018-06-20T05:18:14.668Z,4000
2018-06-20T05:19:15.388Z,4012
2018-06-20T05:20:16.115Z,4000
2018-06-20T05:21:16.849Z,4004
2018-06-20T05:22:17.565Z,3988
2018-06-20T05:23:18.287Z,4096
2018-06-20T05:24:19.007Z,4132
2018-06-20T05:25:19.727Z,4260
2018-06-20T05:26:20.451Z,4248
2018-06-20T05:27:21.171Z,4240
2018-06-20T05:28:21.894Z,4352
2018-06-20T05:29:22.614Z,4352
2018-06-20T05:30:23.335Z,4420
2018-06-20T05:31:24.057Z,4500
2018-06-20T05:32:24.780Z,4600
2018-06-20T05:33:25.502Z,4700
2018-06-20T05:34:26.228Z,4668
2018-06-20T05:35:26.945Z,4628
2018-06-20T05:36:27.667Z,4572
2018-06-20T05:37:28.388Z,4680
2018-06-20T05:38:29.124Z,4928
2018-06-20T05:39:29.846Z,5144
2018-06-20T05:40:30.565Z,5168
2018-06-20T05:41:31.284Z,5344
2018-06-20T05:42:32.005Z,5412
2018-06-20T05:43:32.731Z,5476
2018-06-20T05:44:33.449Z,5728
2018-06-20T05:45:34.169Z,6016
2018-06-20T05:46:34.890Z,6112
2018-06-20T05:47:35.610Z,6204
2018-06-20T05:48:36.332Z,6184
2018-06-20T05:49:37.057Z,6500
2018-06-20T05:50:37.790Z,6836
2018-06-20T05:51:38.512Z,7212
2018-06-20T05:52:39.234Z,7260
2018-06-20T05:53:39.973Z,7032
2018-06-20T05:54:40.703Z,7028
2018-06-20T05:55:41.425Z,7188
2018-06-20T05:56:42.161Z,7180
2018-06-20T05:57:42.882Z,6980
2018-06-20T05:58:43.605Z,7016
2018-06-20T05:59:44.328Z,6904
2018-06-20T06:00:45.050Z,6512
2018-06-20T06:01:45.772Z,6764
2018-06-20T06:02:46.508Z,6780
2018-06-20T06:03:47.245Z,6448
2018-06-20T06:04:47.968Z,6512
2018-06-20T06:05:48.689Z,5968
2018-06-20T06:06:49.411Z,5632
2018-06-20T06:07:50.147Z,5620
2018-06-20T06:08:50.870Z,5404
2018-06-20T06:09:51.593Z,5424
2018-06-20T06:10:52.317Z,5440
2018-06-20T06:11:53.038Z,5512
2018-06-20T06:12:53.770Z,5568
2018-06-20T06:13:54.493Z,5380
2018-06-20T06:14:55.228Z,5404
2018-06-20T06:15:55.950Z,5328
2018-06-20T06:16:56.733Z,5360
2018-06-20T06:17:57.405Z,5288
2018-06-20T06:18:58.127Z,5164
2018-06-20T06:19:58.846Z,5228
2018-06-20T06:20:59.569Z,4916
2018-06-20T06:22:00.298Z,4692
2018-06-20T06:23:01.013Z,4860
2018-06-20T06:24:01.738Z,5196
2018-06-20T06:25:02.459Z,5444
2018-06-20T06:26:03.193Z,5832
2018-06-20T06:27:03.915Z,6076
2018-06-20T06:28:04.651Z,6244
2018-06-20T06:29:05.374Z,6372
2018-06-20T06:30:06.098Z,6604
2018-06-20T06:31:06.828Z,6440
2018-06-20T06:32:07.551Z,6020
2018-06-20T06:33:08.271Z,5428
2018-06-20T06:34:08.992Z,5776
2018-06-20T06:35:09.715Z,5948
2018-06-20T06:36:10.451Z,6132
2018-06-20T06:37:11.174Z,5792
2018-06-20T06:38:11.900Z,5996
2018-06-20T06:39:12.618Z,5936
2018-06-20T06:40:13.340Z,6000
2018-06-20T06:41:14.063Z,5972
2018-06-20T06:42:14.786Z,5548
2018-06-20T06:43:15.510Z,4780
2018-06-20T06:44:16.231Z,4332
2018-06-20T06:45:16.953Z,4084
2018-06-20T06:46:17.687Z,4028
2018-06-20T06:47:18.410Z,4404
2018-06-20T06:48:19.132Z,5016
2018-06-20T06:49:19.853Z,5292
2018-06-20T06:50:20.574Z,5268
2018-06-20T06:51:21.307Z,5372
2018-06-20T06:52:22.042Z,5124
2018-06-20T06:53:22.762Z,5080
2018-06-20T06:54:23.485Z,5324
2018-06-20T06:55:24.207Z,5848
2018-06-20T06:56:24.929Z,6224
2018-06-20T06:57:25.652Z,6912
2018-06-20T06:58:26.386Z,7564
2018-06-20T06:59:27.122Z,8092
2018-06-20T07:00:27.857Z,8204
2018-06-20T07:01:28.579Z,8284
2018-06-20T07:02:29.315Z,8496
2018-06-20T07:03:30.037Z,8844
2018-06-20T07:04:30.758Z,9152
2018-06-20T07:05:31.479Z,8968
2018-06-20T07:06:32.213Z,8528
2018-06-20T07:07:32.937Z,9024
2018-06-20T07:08:33.670Z,9664
2018-06-20T07:09:34.404Z,9772
2018-06-20T07:10:35.128Z,10860
2018-06-20T07:11:35.855Z,12480
2018-06-20T07:12:36.589Z,10640
2018-06-20T07:13:37.311Z,9780
2018-06-20T07:14:38.036Z,10164
2018-06-20T07:15:38.761Z,11224
2018-06-20T07:16:39.483Z,11300
2018-06-20T07:17:40.207Z,11824
2018-06-20T07:18:40.943Z,12052
2018-06-20T07:19:41.669Z,12164
2018-06-20T07:20:42.392Z,12676
2018-06-20T07:21:43.116Z,12148
2018-06-20T07:22:43.840Z,13092
2018-06-20T07:23:44.577Z,12940
2018-06-20T07:24:45.301Z,10624
2018-06-20T07:25:46.027Z,10244
2018-06-20T07:26:46.765Z,11784
2018-06-20T07:27:47.493Z,12248
2018-06-20T07:28:48.214Z,13408
2018-06-20T07:29:49.000Z,13648
2018-06-20T07:30:49.714Z,11116
2018-06-20T07:31:50.387Z,10356
2018-06-20T07:32:51.113Z,11524
2018-06-20T07:33:51.839Z,12544
2018-06-20T07:34:52.563Z,11496
2018-06-20T07:35:53.415Z,11496
2018-06-20T07:36:54.011Z,10436
2018-06-20T07:37:54.733Z,9780
2018-06-20T07:38:55.470Z,12036
2018-06-20T07:39:56.194Z,11064
2018-06-20T07:40:56.919Z,10160
2018-06-20T07:41:57.645Z,10756
2018-06-20T07:42:58.369Z,12276
2018-06-20T07:43:59.093Z,15256
2018-06-20T07:44:59.874Z,17184
2018-06-20T07:46:00.544Z,18016
2018-06-20T07:47:01.270Z,14800
2018-06-20T07:48:02.012Z,12396
2018-06-20T07:49:02.738Z,11936
2018-06-20T07:50:03.464Z,11496
2018-06-20T07:51:04.203Z,11820
2018-06-20T07:52:04.934Z,12788
2018-06-20T07:53:05.667Z,13476
2018-06-20T07:54:06.395Z,11644
2018-06-20T07:55:07.135Z,9260
2018-06-20T07:56:07.872Z,7076
2018-06-20T07:57:08.597Z,5516
2018-06-20T07:58:09.334Z,5128
2018-06-20T07:59:10.073Z,5064
2018-06-20T08:00:10.796Z,6504
2018-06-20T08:01:11.520Z,7592
2018-06-20T08:02:12.255Z,8080
2018-06-20T08:03:12.978Z,7920
2018-06-20T08:04:13.704Z,7540
2018-06-20T08:05:14.428Z,8272
2018-06-20T08:06:15.223Z,8704
2018-06-20T08:07:15.905Z,10440
2018-06-20T08:08:16.628Z,10792
2018-06-20T08:09:17.355Z,10756
2018-06-20T08:10:18.079Z,10184
2018-06-20T08:11:18.803Z,13012
2018-06-20T08:12:19.582Z,10044
2018-06-20T08:13:20.271Z,11484
2018-06-20T08:14:21.000Z,49280
2018-06-20T08:15:21.723Z,15864
2018-06-20T08:16:22.464Z,13732
2018-06-20T08:17:23.190Z,13276
2018-06-20T08:18:23.914Z,13416
2018-06-20T08:19:24.643Z,14880
2018-06-20T08:20:25.367Z,14140
2018-06-20T08:21:26.090Z,13268
2018-06-20T08:22:26.815Z,27072
2018-06-20T08:23:27.554Z,44672
2018-06-20T08:24:28.281Z,18848
2018-06-20T08:25:29.009Z,16672
2018-06-20T08:26:29.737Z,13828
2018-06-20T08:27:30.465Z,13992
2018-06-20T08:28:31.198Z,14488
2018-06-20T08:29:31.932Z,13584
2018-06-20T08:30:32.657Z,15272
2018-06-20T08:31:33.383Z,31328
2018-06-20T08:32:34.112Z,27776
2018-06-20T08:33:34.838Z,13404
2018-06-20T08:34:35.576Z,17024
2018-06-20T08:35:36.300Z,9748
2018-06-20T08:36:37.041Z,8996
2018-06-20T08:37:37.765Z,9636
2018-06-20T08:38:38.504Z,10848
2018-06-20T08:39:39.236Z,13552
2018-06-20T08:40:39.962Z,14032
2018-06-20T08:41:40.700Z,17440
2018-06-20T08:42:41.429Z,50976
2018-06-20T08:43:42.156Z,15944
2018-06-20T08:44:42.896Z,20000
2018-06-20T08:45:43.621Z,21184
2018-06-20T08:46:44.351Z,71008
2018-06-20T08:47:45.083Z,72352
2018-06-20T08:48:45.814Z,29600
2018-06-20T08:49:46.548Z,36416
2018-06-20T08:50:47.278Z,19808
2018-06-20T08:51:48.011Z,13620
2018-06-20T08:52:48.755Z,15128
2018-06-20T08:53:49.489Z,65536
2018-06-20T08:54:50.222Z,38912
2018-06-20T08:55:50.957Z,19904
2018-06-20T08:56:51.691Z,11824
2018-06-20T08:57:52.422Z,8652
2018-06-20T08:58:53.151Z,6884
2018-06-20T08:59:53.882Z,5496
2018-06-20T09:00:54.608Z,4636
2018-06-20T09:01:55.353Z,3576
2018-06-20T09:02:56.094Z,3568
2018-06-20T09:03:56.828Z,3692
2018-06-20T09:04:57.556Z,3936
2018-06-20T09:05:58.286Z,4000
2018-06-20T09:06:59.017Z,4320
2018-06-20T09:07:59.748Z,4640
2018-06-20T09:09:00.488Z,5492
2018-06-20T09:10:01.216Z,6652
2018-06-20T09:11:01.942Z,8380
2018-06-20T09:12:02.672Z,10880
2018-06-20T09:13:03.401Z,12764
2018-06-20T09:14:04.131Z,15364
2018-06-20T09:15:04.857Z,15904
2018-06-20T09:16:05.588Z,14208
2018-06-20T09:17:06.321Z,13868
2018-06-20T09:18:07.051Z,14028
2018-06-20T09:19:07.776Z,17184
2018-06-20T09:20:08.507Z,54240
2018-06-20T09:21:09.236Z,33600
2018-06-20T09:22:09.983Z,24064
2018-06-20T09:23:10.714Z,26336
2018-06-20T09:24:11.447Z,44768
2018-06-20T09:25:12.195Z,82048
2018-06-20T09:26:12.927Z,94400
2018-06-20T09:27:13.663Z,55392
2018-06-20T09:28:14.397Z,26816
2018-06-20T09:29:15.132Z,60672
2018-06-20T09:30:15.863Z,43424
2018-06-20T09:31:16.598Z,15432
2018-06-20T09:32:17.325Z,13844
2018-06-20T09:33:18.054Z,10908
2018-06-20T09:34:18.782Z,9028
2018-06-20T09:35:19.513Z,9728
2018-06-20T09:36:20.241Z,11028
2018-06-20T09:37:20.971Z,11092
2018-06-20T09:38:21.700Z,16032
2018-06-20T09:39:22.431Z,14680
2018-06-20T09:40:23.163Z,25952
2018-06-20T09:41:23.894Z,25504
2018-06-20T09:42:24.624Z,89440
2018-06-20T09:43:25.355Z,78656
2018-06-20T09:44:26.092Z,46144
2018-06-20T09:45:26.818Z,81568
2018-06-20T09:46:27.561Z,95104
2018-06-20T09:47:28.295Z,56064
2018-06-20T09:48:29.029Z,24416
2018-06-20T09:49:29.773Z,36384
2018-06-20T09:50:30.507Z,33728
2018-06-20T09:51:31.559Z,26944
2018-06-20T09:52:32.190Z,12724
2018-06-20T09:53:32.932Z,11828
2018-06-20T09:54:33.661Z,13244
2018-06-20T09:55:34.393Z,21888
2018-06-20T09:56:35.124Z,14968
2018-06-20T09:57:35.853Z,14976
2018-06-20T09:58:36.595Z,13444
2018-06-20T09:59:37.326Z,14352
2018-06-20T10:00:38.069Z,14328
2018-06-20T10:01:38.803Z,15392
2018-06-20T10:02:39.518Z,16544
2018-06-20T10:03:40.246Z,74240
2018-06-20T10:04:40.978Z,23872
2018-06-20T10:05:41.710Z,21696
2018-06-20T10:06:42.444Z,18912
2018-06-20T10:07:43.173Z,17056
2018-06-20T10:08:43.904Z,19104
2018-06-20T10:09:44.634Z,32320
2018-06-20T10:10:45.366Z,23776
2018-06-20T10:11:46.099Z,23968
2018-06-20T10:12:46.832Z,31808
2018-06-20T10:13:47.563Z,64352
2018-06-20T10:14:48.304Z,96032
2018-06-20T10:15:49.037Z,31360
2018-06-20T10:16:49.782Z,90080
2018-06-20T10:17:50.514Z,25760
2018-06-20T10:18:51.244Z,52128
2018-06-20T10:19:51.975Z,25120
2018-06-20T10:20:52.708Z,41344
2018-06-20T10:21:53.440Z,87264
2018-06-20T10:22:54.170Z,48160
2018-06-20T10:23:54.907Z,34656
2018-06-20T10:24:55.640Z,37632
2018-06-20T10:25:56.382Z,35168
2018-06-20T10:26:57.115Z,24256
2018-06-20T10:27:57.846Z,27296
2018-06-20T10:28:58.576Z,16480
2018-06-20T10:29:59.313Z,14784
2018-06-20T10:31:00.051Z,14224
2018-06-20T10:32:00.782Z,16864
2018-06-20T10:33:01.514Z,26624
2018-06-20T10:34:02.258Z,82048
2018-06-20T10:35:02.988Z,14212
2018-06-20T10:36:03.718Z,14704
2018-06-20T10:37:04.463Z,18240
2018-06-20T10:38:05.204Z,39616
2018-06-20T10:39:05.934Z,41952
2018-06-20T10:40:06.666Z,21600
2018-06-20T10:41:07.397Z,19808
2018-06-20T10:42:08.126Z,15068
2018-06-20T10:43:08.859Z,16992
2018-06-20T10:44:09.598Z,16672
2018-06-20T10:45:10.334Z,12552
2018-06-20T10:46:11.104Z,14784
2018-06-20T10:47:11.789Z,19168
2018-06-20T10:48:12.523Z,61696
2018-06-20T10:49:13.255Z,96704
2018-06-20T10:50:13.987Z,29472
2018-06-20T10:51:14.730Z,96704
2018-06-20T10:52:15.476Z,102304
2018-06-20T10:53:16.211Z,90048
2018-06-20T10:54:16.994Z,65504
2018-06-20T10:55:17.692Z,47616
2018-06-20T10:56:18.427Z,88640
2018-06-20T10:57:19.163Z,90816
2018-06-20T10:58:19.894Z,28096
2018-06-20T11:01:09.965Z,18176
2018-06-20T11:02:10.700Z,64512
2018-06-20T11:03:11.433Z,66656
2018-06-20T11:04:12.189Z,48096
2018-06-20T11:05:12.914Z,63424
2018-06-20T11:06:13.648Z,24448
2018-06-20T11:07:14.394Z,95296
2018-06-20T11:08:15.129Z,21504
2018-06-20T11:09:15.874Z,15156
2018-06-20T11:10:16.608Z,11408
2018-06-20T11:11:17.339Z,12304
2018-06-20T11:12:18.072Z,14052
2018-06-20T11:13:18.805Z,76544
2018-06-20T11:14:19.551Z,53024
2018-06-20T11:15:20.285Z,78976
2018-06-20T11:16:21.027Z,25856
2018-06-20T11:17:21.761Z,90752
2018-06-20T11:18:22.493Z,31616
2018-06-20T11:19:23.226Z,25440
2018-06-20T11:20:23.960Z,12148
2018-06-20T11:21:24.692Z,17824
2018-06-20T11:22:25.424Z,15124
2018-06-20T11:23:26.161Z,14736
2018-06-20T11:24:26.899Z,14060
2018-06-20T11:25:27.631Z,15416
2018-06-20T11:26:28.360Z,22112
2018-06-20T11:27:29.093Z,50688
2018-06-20T11:28:29.825Z,86976
2018-06-20T11:29:30.571Z,92288
2018-06-20T11:30:31.305Z,98624
2018-06-20T11:31:32.039Z,99264
2018-06-20T11:32:32.772Z,91392
2018-06-20T11:33:33.518Z,19808
2018-06-20T11:34:34.266Z,81600
2018-06-20T11:35:35.015Z,85312
2018-06-20T11:36:35.752Z,76608
2018-06-20T11:37:36.483Z,19488
2018-06-20T11:38:37.217Z,85344
2018-06-20T11:39:37.963Z,35584
2018-06-20T11:40:38.694Z,89408
2018-06-20T11:41:39.442Z,92832
2018-06-20T11:42:40.176Z,14172
2018-06-20T11:43:40.919Z,15996
2018-06-20T11:44:41.653Z,95520
2018-06-20T11:45:42.383Z,24096
2018-06-20T11:46:43.121Z,46848
2018-06-20T11:47:43.861Z,97440
2018-06-20T11:48:44.599Z,86528
2018-06-20T11:49:45.333Z,36608
2018-06-20T11:50:46.071Z,91136
2018-06-20T11:51:46.804Z,83520
2018-06-20T11:52:47.535Z,0
2018-06-20T11:53:48.271Z,75744
2018-06-20T11:54:49.024Z,88224
2018-06-20T11:55:49.762Z,86400
2018-06-20T11:56:50.500Z,81504
2018-06-20T11:57:51.239Z,82240
2018-06-20T11:58:51.988Z,82304
2018-06-20T11:59:52.731Z,87616
2018-06-20T12:00:53.492Z,59584
2018-06-20T12:01:54.301Z,27456
2018-06-20T12:02:54.976Z,23616
2018-06-20T12:03:55.733Z,78528
2018-06-20T12:04:56.459Z,16396
2018-06-20T12:05:57.203Z,17092
2018-06-20T12:06:57.939Z,93088
2018-06-20T12:07:58.679Z,27360
2018-06-20T12:08:59.419Z,72896
2018-06-20T12:10:00.156Z,25504
2018-06-20T12:11:00.893Z,16484
2018-06-20T12:12:01.629Z,30976
2018-06-20T12:13:02.363Z,83584
2018-06-20T12:14:03.112Z,92256
2018-06-20T12:15:03.846Z,17568
2018-06-20T12:16:04.594Z,15980
2018-06-20T12:17:05.325Z,29280
2018-06-20T12:18:06.058Z,17600
2018-06-20T12:19:06.801Z,21600
2018-06-20T12:20:07.548Z,24288
2018-06-20T12:21:08.278Z,29728
2018-06-20T12:22:09.014Z,37408
2018-06-20T12:23:09.744Z,93152
2018-06-20T12:24:10.475Z,17504
2018-06-20T12:25:11.220Z,91872
2018-06-20T12:26:11.963Z,92480
2018-06-20T12:27:12.696Z,84032
2018-06-20T12:28:13.478Z,14364
2018-06-20T12:29:14.245Z,16776
2018-06-20T12:30:14.890Z,15432
2018-06-20T12:31:15.634Z,93056
2018-06-20T12:32:16.367Z,91872
2018-06-20T12:33:17.100Z,86176
2018-06-20T12:34:17.843Z,83968
2018-06-20T12:35:18.588Z,17504
2018-06-20T12:36:19.335Z,36992
2018-06-20T12:37:20.066Z,40256
2018-06-20T12:38:20.803Z,72128
2018-06-20T12:39:21.534Z,81344
2018-06-20T12:40:22.279Z,82976
2018-06-20T12:41:23.012Z,84160
2018-06-20T12:42:23.764Z,19808
2018-06-20T12:43:24.508Z,82528
2018-06-20T12:44:25.245Z,72768
2018-06-20T12:45:25.993Z,89248
2018-06-20T12:46:26.741Z,87488
2018-06-20T12:47:27.502Z,89280
2018-06-20T12:48:28.241Z,89216
2018-06-20T12:49:28.996Z,85920
2018-06-20T12:50:29.738Z,0
2018-06-20T12:51:30.484Z,91680
2018-06-20T12:52:31.274Z,86400
2018-06-20T12:53:31.996Z,85728
2018-06-20T12:54:32.737Z,84864
2018-06-20T12:55:33.481Z,10024
2018-06-20T12:56:34.224Z,90048
2018-06-20T12:57:34.973Z,80896
2018-06-20T12:58:35.708Z,28288
2018-06-20T12:59:36.452Z,40128
2018-06-20T13:00:37.195Z,80960
2018-06-20T13:01:37.938Z,79200
2018-06-20T13:02:38.682Z,20640
2018-06-20T13:03:39.422Z,78624
2018-06-20T13:04:40.165Z,70848
2018-06-20T13:05:40.908Z,83488
2018-06-20T13:06:41.648Z,95104
2018-06-20T13:07:42.392Z,80672
2018-06-20T13:08:43.132Z,9572
2018-06-20T13:09:43.873Z,106016
2018-06-20T13:10:44.618Z,93824
2018-06-20T13:11:45.363Z,84448
2018-06-20T13:12:46.121Z,84384
2018-06-20T13:13:46.867Z,65952
2018-06-20T13:14:47.610Z,81056
2018-06-20T13:15:48.350Z,58464
2018-06-20T13:16:49.090Z,11872
2018-06-20T13:17:49.831Z,36352
2018-06-20T13:18:50.576Z,82912
2018-06-20T13:19:51.325Z,80992
2018-06-20T13:20:52.059Z,71232
2018-06-20T13:21:52.802Z,77472
2018-06-20T13:22:53.558Z,80192
2018-06-20T13:23:54.298Z,87232
2018-06-20T13:24:55.055Z,29888
2018-06-20T13:25:55.798Z,74304
2018-06-20T13:26:56.541Z,83616
2018-06-20T13:27:57.291Z,24096
2018-06-20T13:28:58.021Z,11436
2018-06-20T13:29:58.762Z,10176
2018-06-20T13:30:59.499Z,13488
2018-06-20T13:32:00.236Z,78496
2018-06-20T13:33:00.970Z,47296
2018-06-20T13:34:01.710Z,35840
2018-06-20T13:35:02.444Z,78880
2018-06-20T13:36:03.177Z,8960
2018-06-20T13:37:03.910Z,70240
2018-06-20T13:38:04.646Z,23872
2018-06-20T13:39:05.374Z,11324
2018-06-20T13:40:06.113Z,81632
2018-06-20T13:41:06.851Z,79936